Time;durP1;ratioP1;P1;durP2;ratioP2;P2;SDS_P1;SDS_P2;PMS_P1;PMS_P2;Temp;Humidity;BMP_temperature;BMP_pressure;BME280_temperature;BME280_humidity;BME280_pressure;Samples;Min_cycle;Max_cycle;Signal;HPM_P1;HPM_P2
2023/11/05 00:02:10;;;;;;;1.27;0.60;;;8.10;99.90;;;7.63;100.00;96515.41;5010015;28;20124;-77
2023/11/05 00:04:36;;;;;;;1.95;1.00;;;8.10;99.90;;;7.63;100.00;96509.19;5039968;28;20034;-77
2023/11/05 00:07:02;;;;;;;1.75;0.85;;;8.10;99.90;;;7.74;100.00;96518.75;5017137;28;20044;-78
2023/11/05 00:09:28;;;;;;;2.80;0.90;;;8.20;99.90;;;7.76;100.00;96518.47;5031389;28;20034;-77
2023/11/05 00:11:54;;;;;;;1.38;0.80;;;8.30;99.90;;;7.77;100.00;96518.16;5017976;28;20485;-77
2023/11/05 00:14:19;;;;;;;2.80;1.10;;;8.30;99.90;;;7.85;100.00;96543.78;5017219;28;20026;-77
2023/11/05 00:16:45;;;;;;;1.67;0.77;;;8.40;99.90;;;7.77;100.00;96539.06;5016062;28;20570;-77
2023/11/05 00:19:11;;;;;;;1.73;0.68;;;8.40;99.90;;;7.91;100.00;96561.59;5026288;28;20048;-77
2023/11/05 00:21:36;;;;;;;2.90;1.00;;;8.40;99.90;;;7.91;100.00;96574.38;5011859;28;20026;-77
2023/11/05 00:24:03;;;;;;;1.73;1.05;;;8.40;99.90;;;7.87;100.00;96585.00;5018057;28;20673;-78
2023/11/05 00:26:29;;;;;;;2.65;0.95;;;8.30;99.90;;;7.82;100.00;96576.13;5002326;28;20396;-77
2023/11/05 00:28:54;;;;;;;3.75;1.05;;;8.30;99.90;;;7.90;100.00;96584.41;5018664;28;20462;-77
2023/11/05 00:31:21;;;;;;;3.20;1.05;;;8.30;99.90;;;8.01;100.00;96595.09;5034285;28;20037;-77
2023/11/05 00:33:46;;;;;;;2.08;0.85;;;8.40;99.90;;;8.04;100.00;96599.91;5032032;28;20082;-77
2023/11/05 00:36:12;;;;;;;1.55;0.70;;;8.50;99.90;;;8.00;100.00;96593.47;5013248;28;20045;-77
2023/11/05 00:38:38;;;;;;;2.40;1.00;;;8.50;99.90;;;8.12;100.00;96612.78;5014165;28;20062;-77
2023/11/05 00:41:04;;;;;;;1.73;0.90;;;8.50;99.90;;;8.18;100.00;96614.28;5017835;28;20145;-77
2023/11/05 00:43:34;;;;;;;1.63;1.00;;;8.60;99.90;;;8.14;100.00;96617.94;5015853;28;20038;-77
2023/11/05 00:46:03;;;;;;;3.00;0.80;;;8.50;99.90;;;8.12;100.00;96629.06;5018512;28;20504;-77
2023/11/05 00:48:29;;;;;;;2.25;0.93;;;8.50;99.90;;;8.13;100.00;96638.03;5016892;28;20037;-78
2023/11/05 00:50:55;;;;;;;1.77;1.02;;;8.50;99.90;;;8.02;100.00;96629.28;5027960;28;20092;-77
2023/11/05 00:53:21;;;;;;;2.88;0.95;;;8.40;99.90;;;8.05;100.00;96634.88;5034173;28;20091;-77
2023/11/05 00:55:47;;;;;;;4.45;1.10;;;8.40;99.90;;;8.07;100.00;96631.88;5017247;28;20452;-77
2023/11/05 00:58:13;;;;;;;3.22;1.35;;;8.50;99.90;;;8.10;100.00;96617.72;5040153;28;20038;-77
2023/11/05 01:00:38;;;;;;;2.25;1.00;;;8.60;99.90;;;8.02;100.00;96607.56;5038799;28;20038;-78
2023/11/05 01:03:04;;;;;;;2.60;1.08;;;8.60;99.90;;;8.22;100.00;96622.66;5032478;28;20100;-77
2023/11/05 01:05:30;;;;;;;2.38;1.50;;;8.60;99.90;;;8.25;100.00;96624.78;5012506;28;20177;-77
2023/11/05 01:07:56;;;;;;;3.45;1.23;;;8.60;99.90;;;8.17;100.00;96615.41;5021973;28;20068;-77
2023/11/05 01:10:22;;;;;;;3.50;1.85;;;8.60;99.90;;;8.20;100.00;96619.44;5027680;28;20136;-77
2023/11/05 01:12:48;;;;;;;7.22;2.60;;;8.60;99.90;;;8.17;100.00;96615.41;5015761;28;20037;-77
2023/11/05 01:15:13;;;;;;;4.82;2.30;;;8.60;99.90;;;8.25;100.00;96618.56;5012364;28;20038;-76
2023/11/05 01:17:40;;;;;;;5.10;1.92;;;8.60;99.90;;;8.32;100.00;96627.88;5020987;28;20116;-76
2023/11/05 01:20:08;;;;;;;4.30;1.90;;;8.60;99.90;;;8.37;100.00;96626.22;5016495;28;20033;-76
2023/11/05 01:22:34;;;;;;;4.75;1.73;;;8.70;99.90;;;8.36;100.00;96625.38;5016468;28;20034;-76
2023/11/05 01:25:00;;;;;;;2.92;1.27;;;8.70;99.90;;;8.35;100.00;96615.63;5018765;28;20043;-76
2023/11/05 01:27:26;;;;;;;3.72;1.40;;;8.70;99.90;;;8.39;100.00;96615.84;5012160;28;20933;-76
2023/11/05 01:29:52;;;;;;;3.20;1.30;;;8.70;99.90;;;8.35;100.00;96618.34;5011642;28;20034;-76
2023/11/05 01:32:18;;;;;;;3.88;1.20;;;8.70;99.90;;;8.31;100.00;96609.19;5017673;28;20044;-76
2023/11/05 01:34:44;;;;;;;3.95;1.40;;;8.70;99.90;;;8.37;100.00;96607.19;5019330;28;20029;-76
2023/11/05 01:37:12;;;;;;;4.32;1.65;;;8.70;99.90;;;8.26;100.00;96603.88;5028879;28;20681;-76
2023/11/05 01:39:38;;;;;;;3.35;1.48;;;8.60;99.90;;;8.17;100.00;96599.13;5018718;28;20034;-76
2023/11/05 01:42:04;;;;;;;4.47;1.25;;;8.60;99.90;;;8.16;100.00;96597.50;5032548;28;20144;-76
2023/11/05 01:44:31;;;;;;;4.80;1.10;;;8.50;99.90;;;8.18;100.00;96598.00;5013833;28;20040;-77
2023/11/05 01:46:57;;;;;;;3.72;1.20;;;8.50;99.90;;;8.10;100.00;96576.19;5017753;28;20044;-76
2023/11/05 01:49:23;;;;;;;3.08;1.27;;;8.40;99.90;;;8.16;100.00;96589.34;5022429;28;20070;-76
2023/11/05 01:51:49;;;;;;;3.45;1.40;;;8.40;99.90;;;8.13;100.00;96570.16;5018139;28;20106;-76
2023/11/05 01:54:16;;;;;;;3.97;1.30;;;8.40;99.90;;;8.06;100.00;96544.19;5011392;28;20084;-76
2023/11/05 01:56:42;;;;;;;3.38;1.40;;;8.40;99.90;;;8.16;100.00;96548.63;5012244;28;20532;-77
2023/11/05 01:59:08;;;;;;;3.65;1.45;;;8.50;99.90;;;8.16;100.00;96537.78;5017818;28;20037;-76
2023/11/05 02:01:33;;;;;;;5.00;1.30;;;8.50;99.90;;;8.28;100.00;96545.41;5031720;28;20022;-77
2023/11/05 02:04:01;;;;;;;3.65;1.30;;;8.60;99.90;;;8.34;100.00;96544.19;5019376;28;20041;-76
2023/11/05 02:06:27;;;;;;;4.75;1.40;;;8.60;99.90;;;8.38;100.00;96546.34;5042245;28;20025;-77
2023/11/05 02:08:52;;;;;;;2.97;1.50;;;8.70;99.90;;;8.27;100.00;96537.59;5037092;28;20050;-76
2023/11/05 02:11:18;;;;;;;2.80;1.23;;;8.70;99.90;;;8.38;100.00;96544.41;5012055;28;20053;-76
2023/11/05 02:13:52;;;;;;;3.10;1.20;;;8.70;99.90;;;8.38;100.00;96546.34;5022924;28;20056;-77
2023/11/05 02:16:20;;;;;;;2.47;1.08;;;8.80;99.90;;;8.46;100.00;96551.06;5017111;28;20049;-76
2023/11/05 02:18:48;;;;;;;2.35;1.30;;;8.80;99.90;;;8.51;100.00;96548.25;5016498;28;20045;-76
2023/11/05 02:21:20;;;;;;;2.17;1.20;;;8.80;99.90;;;8.57;100.00;96546.25;5023122;28;20045;-76
2023/11/05 02:23:48;;;;;;;4.18;1.52;;;8.90;99.90;;;8.54;100.00;96547.66;5014342;28;20045;-76
2023/11/05 02:26:15;;;;;;;6.20;1.38;;;8.90;99.90;;;8.55;100.00;96548.47;5026969;28;20053;-76
2023/11/05 02:28:40;;;;;;;3.15;1.10;;;8.90;99.90;;;8.52;100.00;96544.44;5024674;28;20039;-76
2023/11/05 02:31:06;;;;;;;2.97;1.25;;;9.00;99.90;;;8.51;100.00;96531.97;5011050;28;20030;-76
2023/11/05 02:33:41;;;;;;;2.92;1.15;;;9.00;99.90;;;8.58;100.00;96564.16;5036919;28;20423;-76
2023/11/05 02:36:08;;;;;;;2.50;1.38;;;9.00;99.90;;;8.55;100.00;96556.59;5018829;28;20048;-77
2023/11/05 02:38:39;;;;;;;4.05;1.33;;;9.00;99.90;;;8.53;100.00;96556.91;5010993;28;20030;-76
2023/11/05 02:41:07;;;;;;;3.13;1.10;;;9.00;99.90;;;8.50;100.00;96560.22;5016256;28;20038;-77
2023/11/05 02:43:33;;;;;;;3.03;1.00;;;8.90;99.90;;;8.51;100.00;96566.47;5019638;28;20057;-75
2023/11/05 02:46:00;;;;;;;4.00;1.20;;;9.00;99.90;;;8.51;100.00;96563.75;5015091;28;20112;-76
2023/11/05 02:48:26;;;;;;;5.43;1.15;;;9.00;99.90;;;8.51;100.00;96564.56;5019832;28;20473;-77
2023/11/05 02:50:51;;;;;;;3.65;1.10;;;8.90;99.90;;;8.55;100.00;96570.19;5018691;28;20036;-77
2023/11/05 02:53:18;;;;;;;4.53;1.30;;;9.00;99.90;;;8.60;100.00;96559.22;5025298;28;20069;-76
2023/11/05 02:55:45;;;;;;;5.20;1.02;;;9.10;99.90;;;8.71;100.00;96573.38;5017450;28;20068;-77
2023/11/05 02:58:16;;;;;;;5.35;1.00;;;9.10;99.90;;;8.71;100.00;96573.38;5023546;28;20401;-77
2023/11/05 03:00:43;;;;;;;4.70;1.27;;;9.10;99.90;;;8.70;100.00;96588.09;5017127;28;20050;-77
2023/11/05 03:03:13;;;;;;;3.15;0.82;;;9.10;99.90;;;8.65;100.00;96574.63;5018317;28;20390;-76
2023/11/05 03:05:43;;;;;;;2.65;1.08;;;9.10;99.90;;;8.58;100.00;96572.31;5020841;28;20061;-76
2023/11/05 03:08:11;;;;;;;5.57;1.20;;;9.00;99.90;;;8.56;100.00;96577.22;5015716;28;20430;-77
2023/11/05 03:10:39;;;;;;;3.78;1.10;;;9.00;99.90;;;8.56;100.00;96577.22;5019670;28;20038;-76
2023/11/05 03:13:08;;;;;;;3.20;1.40;;;9.00;99.90;;;8.55;100.00;96572.91;5021308;28;20030;-76
2023/11/05 03:15:34;;;;;;;5.60;1.20;;;9.00;99.90;;;8.65;100.00;96588.19;5020086;28;20034;-77
2023/11/05 03:18:00;;;;;;;3.00;0.93;;;9.00;99.90;;;8.58;100.00;96577.72;5024679;28;20115;-77
2023/11/05 03:20:25;;;;;;;6.57;1.30;;;9.00;99.90;;;8.59;100.00;96592.94;5029710;28;20034;-77
2023/11/05 03:22:51;;;;;;;4.40;0.98;;;9.00;99.90;;;8.50;100.00;96584.69;5014690;28;20489;-76
2023/11/05 03:25:17;;;;;;;4.13;1.20;;;9.00;99.90;;;8.59;100.00;96591.00;5015125;28;20037;-76
2023/11/05 03:27:43;;;;;;;5.07;1.20;;;9.00;99.90;;;8.66;100.00;96598.75;5014825;28;20033;-76
2023/11/05 03:30:09;;;;;;;4.18;1.33;;;9.00;99.90;;;8.63;100.00;96586.59;5021382;28;20469;-77
2023/11/05 03:32:34;;;;;;;3.95;1.38;;;9.00;99.90;;;8.64;100.00;96581.94;5019484;28;20044;-77
2023/11/05 03:35:03;;;;;;;6.70;1.20;;;9.10;99.90;;;8.68;100.00;96582.94;5018698;28;20482;-76
2023/11/05 03:37:29;;;;;;;4.80;1.20;;;9.10;99.90;;;8.73;100.00;96596.41;5039094;28;20111;-76
2023/11/05 03:39:55;;;;;;;4.88;0.98;;;9.20;99.90;;;8.80;100.00;96597.94;5018081;28;20030;-76
2023/11/05 03:42:20;;;;;;;4.15;1.30;;;9.20;99.90;;;8.83;100.00;96602.75;5028856;28;20049;-75
2023/11/05 03:44:46;;;;;;;3.85;1.30;;;9.20;99.90;;;8.84;100.00;96609.81;5017067;28;20489;-76
2023/11/05 03:47:13;;;;;;;4.63;1.20;;;9.20;99.90;;;8.72;100.00;96597.53;5038948;28;20111;-76
2023/11/05 03:49:38;;;;;;;4.65;1.00;;;9.20;99.90;;;8.75;100.00;96618.69;5015132;28;20045;-76
2023/11/05 03:52:04;;;;;;;3.00;1.10;;;9.20;99.90;;;8.76;100.00;96609.41;5035533;28;20029;-76
2023/11/05 03:54:30;;;;;;;3.50;1.20;;;9.20;99.90;;;8.79;100.00;96616.16;5017105;28;20045;-77
2023/11/05 03:56:58;;;;;;;4.00;1.00;;;9.20;99.90;;;8.86;100.00;96615.75;5011890;28;20048;-77
2023/11/05 03:59:26;;;;;;;;;;;9.20;99.90;;;9.05;100.00;96630.00;5013998;28;20496;-77
2023/11/05 04:01:52;;;;;;;3.70;1.00;;;9.40;99.90;;;9.05;100.00;96624.56;5015769;28;19921;-77
2023/11/05 04:04:18;;;;;;;5.30;1.20;;;9.50;99.90;;;9.13;100.00;96630.38;5014570;28;20049;-77
2023/11/05 04:06:44;;;;;;;5.78;0.95;;;9.60;99.90;;;9.09;100.00;96611.16;5013989;28;20098;-76
2023/11/05 04:09:11;;;;;;;6.43;1.40;;;9.60;99.90;;;9.14;100.00;96618.41;5019212;28;20038;-77
2023/11/05 04:11:37;;;;;;;6.53;1.08;;;9.60;99.90;;;9.16;100.00;96621.63;5015550;28;20041;-76
2023/11/05 04:14:03;;;;;;;5.53;1.15;;;9.60;99.90;;;9.15;100.00;96623.56;5013382;28;20038;-77
2023/11/05 04:16:29;;;;;;;3.60;0.90;;;9.60;99.90;;;9.23;100.00;96627.44;5020051;28;20048;-77
2023/11/05 04:18:56;;;;;;;5.85;1.38;;;9.60;99.90;;;9.29;100.00;96623.50;5016344;28;20030;-76
2023/11/05 04:21:22;;;;;;;6.00;1.05;;;9.60;99.90;;;9.19;100.00;96612.84;5013417;28;20030;-77
2023/11/05 04:23:48;;;;;;;5.47;1.20;;;9.60;99.90;;;9.27;100.00;96623.00;5016299;28;20041;-77
2023/11/05 04:26:13;;;;;;;4.72;1.38;;;9.60;99.90;;;9.26;100.00;96621.38;5018175;28;20087;-77
2023/11/05 04:28:40;;;;;;;3.13;1.27;;;9.60;99.90;;;9.24;100.00;96615.44;5022406;28;20037;-77
2023/11/05 04:31:06;;;;;;;4.50;1.30;;;9.60;99.90;;;9.27;100.00;96614.81;5012187;28;20509;-77
2023/11/05 04:33:32;;;;;;;7.55;1.25;;;9.60;99.90;;;9.24;100.00;96611.94;5015831;28;20026;-77
2023/11/05 04:35:58;;;;;;;5.45;1.23;;;9.60;99.90;;;9.25;100.00;96608.91;5013353;28;20046;-77
2023/11/05 04:38:24;;;;;;;7.57;1.50;;;9.60;99.90;;;9.24;100.00;96604.56;5020636;28;20022;-77
2023/11/05 04:40:50;;;;;;;6.07;1.13;;;9.60;99.90;;;9.27;100.00;96606.66;5017003;28;20033;-77
2023/11/05 04:43:16;;;;;;;5.10;1.52;;;9.60;99.90;;;9.19;100.00;96593.81;5029466;28;20034;-77
2023/11/05 04:45:42;;;;;;;4.13;1.30;;;9.50;99.90;;;9.05;100.00;96572.09;5028714;28;20030;-78
2023/11/05 04:48:08;;;;;;;5.25;1.15;;;9.50;99.90;;;9.04;100.00;96575.94;5017017;28;20066;-78
2023/11/05 04:50:33;;;;;;;7.97;1.25;;;9.40;99.90;;;8.95;100.00;96564.97;5015328;28;20045;-79
2023/11/05 04:52:59;;;;;;;5.65;1.52;;;9.40;99.90;;;8.95;100.00;96559.53;5013124;28;20030;-78
2023/11/05 04:55:25;;;;;;;7.78;1.30;;;9.30;99.90;;;8.91;100.00;96544.97;5012543;28;20577;-79
2023/11/05 04:57:51;;;;;;;9.95;1.60;;;9.30;99.90;;;8.86;100.00;96540.44;5012973;28;20398;-78
2023/11/05 05:00:16;;;;;;;5.55;1.10;;;9.20;99.90;;;8.83;100.00;96538.31;5012290;28;20116;-78
2023/11/05 05:02:43;;;;;;;4.90;1.20;;;9.20;99.90;;;8.82;100.00;96530.50;5011068;28;20037;-78
2023/11/05 05:05:09;;;;;;;6.82;1.50;;;9.20;99.90;;;8.92;100.00;96541.13;5015071;28;20576;-78
2023/11/05 05:07:36;;;;;;;5.82;1.25;;;9.30;99.90;;;8.97;100.00;96542.94;5022532;28;20052;-79
2023/11/05 05:10:02;;;;;;;6.03;1.40;;;9.40;99.90;;;9.05;100.00;96553.06;5025740;28;20037;-80
2023/11/05 05:12:28;;;;;;;8.82;1.38;;;9.50;99.90;;;8.98;100.00;96550.78;5015699;28;20448;-79
2023/11/05 05:14:54;;;;;;;6.93;1.20;;;9.50;99.90;;;8.89;100.00;96541.75;5016747;28;20029;-79
2023/11/05 05:17:21;;;;;;;6.60;1.38;;;9.40;99.90;;;8.72;100.00;96521.44;5012368;28;20421;-80
2023/11/05 05:19:47;;;;;;;6.40;1.17;;;9.20;99.90;;;8.70;100.00;96512.78;5016922;28;20038;-79
2023/11/05 05:22:13;;;;;;;5.82;1.40;;;9.20;99.90;;;8.68;100.00;96492.50;5022887;28;20041;-79
2023/11/05 05:24:40;;;;;;;9.43;1.40;;;9.10;99.90;;;8.65;100.00;96466.72;5027725;28;20029;-79
2023/11/05 05:27:06;;;;;;;4.75;1.23;;;9.10;99.90;;;8.68;100.00;96457.97;5019080;28;20034;-79
2023/11/05 05:29:32;;;;;;;7.05;1.30;;;9.10;99.90;;;8.62;100.00;96432.03;5018732;28;20036;-78
2023/11/05 05:31:57;;;;;;;6.55;2.08;;;9.00;99.90;;;8.59;100.00;96416.34;5011729;28;20384;-78
2023/11/05 05:34:23;;;;;;;5.97;1.50;;;9.00;99.90;;;8.55;100.00;96396.34;5011611;28;20037;-78
2023/11/05 05:36:49;;;;;;;8.85;1.75;;;9.00;99.90;;;8.59;100.00;96392.69;5018619;28;20090;-78
2023/11/05 05:39:15;;;;;;;6.45;1.30;;;9.00;99.90;;;8.56;100.00;96376.22;5016751;28;20065;-77
2023/11/05 05:41:40;;;;;;;6.60;1.33;;;8.90;99.90;;;8.49;100.00;96347.56;5037980;28;20037;-78
2023/11/05 05:44:06;;;;;;;8.10;1.45;;;8.90;99.90;;;8.51;100.00;96338.31;5016376;28;20026;-78
2023/11/05 05:46:32;;;;;;;8.73;1.67;;;8.90;99.90;;;8.46;100.00;96325.63;5018740;28;20037;-78
2023/11/05 05:48:58;;;;;;;5.65;1.33;;;8.90;99.90;;;8.49;100.00;96316.84;5011442;28;20044;-78
2023/11/05 05:51:24;;;;;;;7.82;1.50;;;8.90;99.90;;;8.51;100.00;96303.00;5015383;28;20046;-79
2023/11/05 05:53:50;;;;;;;5.18;1.48;;;8.80;99.90;;;8.44;100.00;96278.97;5020055;28;20073;-78
2023/11/05 05:56:16;;;;;;;10.35;1.85;;;8.80;99.90;;;8.47;100.00;96273.69;5019515;28;20401;-79
2023/11/05 05:58:42;;;;;;;8.93;1.58;;;8.80;99.90;;;8.48;100.00;96252.78;5013471;28;20030;-79
2023/11/05 06:01:08;;;;;;;7.97;1.90;;;8.80;99.90;;;8.44;100.00;96244.44;5015980;28;20501;-80
2023/11/05 06:03:34;;;;;;;10.75;1.92;;;8.80;99.90;;;8.41;100.00;96228.78;5013087;28;20359;-81
2023/11/05 06:06:00;;;;;;;6.90;1.50;;;8.80;99.90;;;8.39;100.00;96201.13;5011670;28;20080;-80
2023/11/05 06:08:26;;;;;;;8.48;1.90;;;8.80;99.90;;;8.40;100.00;96185.66;5011515;28;20038;-79
2023/11/05 06:10:52;;;;;;;8.02;1.60;;;8.80;99.90;;;8.40;100.00;96175.56;5016436;28;20367;-79
2023/11/05 06:13:20;;;;;;;6.53;1.52;;;8.80;99.90;;;8.44;100.00;96168.41;5040765;28;20096;-80
2023/11/05 06:15:46;;;;;;;5.43;1.50;;;8.80;99.90;;;8.42;100.00;96156.25;5020275;28;20034;-79
2023/11/05 06:18:13;;;;;;;9.68;1.83;;;8.80;99.90;;;8.49;100.00;96151.16;5022041;28;20033;-79
2023/11/05 06:20:39;;;;;;;8.70;1.70;;;8.90;99.90;;;8.49;100.00;96141.16;5026924;28;20038;-78
2023/11/05 06:23:05;;;;;;;14.07;2.47;;;8.90;99.90;;;8.49;100.00;96124.00;5018402;28;20112;-79
2023/11/05 06:25:31;;;;;;;9.68;1.60;;;8.90;99.90;;;8.51;100.00;96115.59;5018054;28;20041;-78
2023/11/05 06:27:57;;;;;;;5.53;1.77;;;8.90;99.90;;;8.47;100.00;96101.81;5022481;28;20083;-78
2023/11/05 06:30:23;;;;;;;9.27;2.38;;;8.90;99.90;;;8.52;100.00;96119.91;5017636;28;20092;-79
2023/11/05 06:32:49;;;;;;;7.35;2.00;;;8.90;99.90;;;8.53;100.00;96127.72;5016662;28;20041;-78
2023/11/05 06:35:15;;;;;;;9.43;1.92;;;8.90;99.90;;;8.52;100.00;96117.97;5019728;28;20034;-78
2023/11/05 06:37:41;;;;;;;8.02;2.08;;;8.80;99.90;;;8.51;100.00;96112.88;5024665;28;20048;-77
2023/11/05 06:40:08;;;;;;;5.88;1.75;;;8.90;99.90;;;8.54;100.00;96101.38;5016782;28;20038;-77
2023/11/05 06:42:35;;;;;;;7.80;2.00;;;8.90;99.90;;;8.54;100.00;96095.94;5013523;28;20075;-77
2023/11/05 06:45:01;;;;;;;11.10;2.30;;;8.90;99.90;;;8.53;100.00;96094.34;5015167;28;20531;-79
2023/11/05 06:47:27;;;;;;;7.70;2.03;;;8.90;99.90;;;8.56;100.00;96091.78;5015313;28;20118;-78
2023/11/05 06:49:52;;;;;;;6.00;1.92;;;8.90;99.90;;;8.53;100.00;96078.06;5030232;28;20030;-78
2023/11/05 06:52:18;;;;;;;8.82;1.75;;;8.90;99.90;;;8.56;100.00;96088.28;5022585;28;20033;-78
2023/11/05 06:54:44;;;;;;;4.05;1.50;;;9.00;99.90;;;8.60;100.00;96092.75;5017392;28;20041;-78
2023/11/05 06:57:09;;;;;;;8.27;1.80;;;9.00;99.90;;;8.62;100.00;96092.44;5021047;28;20041;-79
2023/11/05 06:59:36;;;;;;;6.32;1.40;;;9.00;99.90;;;8.65;100.00;96104.63;5018128;28;20049;-79
2023/11/05 07:02:02;;;;;;;4.57;1.30;;;9.00;99.90;;;8.68;100.00;96102.03;5019791;28;20049;-79
2023/11/05 07:04:28;;;;;;;5.70;1.30;;;9.10;99.90;;;8.69;100.00;96100.16;5018370;28;20047;-79
2023/11/05 07:06:54;;;;;;;4.53;1.40;;;9.10;99.90;;;8.71;100.00;96100.63;5043160;28;20065;-79
2023/11/05 07:09:20;;;;;;;4.25;1.45;;;9.10;99.90;;;8.77;100.00;96108.31;5019080;28;20052;-79
2023/11/05 07:11:45;;;;;;;10.70;1.15;;;9.20;99.90;;;8.80;100.00;96122.38;5027174;28;20037;-79
2023/11/05 07:14:11;;;;;;;7.90;1.60;;;9.20;99.90;;;8.76;100.00;96124.94;5022144;28;20049;-79
2023/11/05 07:16:37;;;;;;;6.20;2.13;;;9.20;99.90;;;8.95;100.00;96142.88;5017858;28;20037;-79
2023/11/05 07:19:02;;;;;;;8.25;1.40;;;9.30;99.90;;;8.92;100.00;96149.75;5018720;28;20106;-76
2023/11/05 07:21:28;;;;;;;4.00;1.08;;;9.30;99.90;;;8.90;100.00;96155.50;5014216;28;20033;-77
2023/11/05 07:23:54;;;;;;;8.40;1.42;;;9.40;99.90;;;9.00;100.00;96165.25;5015878;28;20038;-79
2023/11/05 07:26:20;;;;;;;5.03;1.13;;;9.40;99.90;;;8.99;100.00;96179.19;5016433;28;20060;-82
2023/11/05 07:28:46;;;;;;;6.10;1.33;;;9.50;99.90;;;9.09;100.00;96199.84;5021761;28;20041;-80
2023/11/05 07:31:21;;;;;;;4.72;1.17;;;9.50;99.90;;;9.13;100.00;96222.56;5017270;28;20377;-80
2023/11/05 07:33:50;;;;;;;7.90;1.67;;;9.50;99.90;;;9.18;100.00;96228.66;5011530;28;20402;-80
2023/11/05 07:36:16;;;;;;;4.68;1.10;;;9.60;99.90;;;9.21;100.00;96246.25;5027975;28;20397;-81
2023/11/05 07:38:42;;;;;;;6.05;1.10;;;9.60;99.90;;;9.24;100.00;96264.63;5025941;28;20044;-80
2023/11/05 07:41:07;;;;;;;5.78;1.20;;;9.60;99.90;;;9.29;100.00;96282.75;5014045;28;20061;-78
2023/11/05 07:43:33;;;;;;;2.15;0.68;;;9.70;99.90;;;9.33;100.00;96291.88;5022668;28;20069;-79
2023/11/05 07:45:59;;;;;;;3.17;0.70;;;9.70;99.90;;;9.42;100.00;96319.09;5014728;28;20091;-80
2023/11/05 07:48:25;;;;;;;6.07;1.27;;;9.80;99.90;;;9.47;100.00;96344.25;5022988;28;20042;-80
2023/11/05 07:50:51;;;;;;;5.82;0.88;;;9.80;99.90;;;9.38;100.00;96343.41;5021573;28;20546;-80
2023/11/05 07:53:18;;;;;;;4.88;0.98;;;9.90;99.90;;;9.41;100.00;96358.28;5029149;28;20029;-80
2023/11/05 07:55:44;;;;;;;3.30;0.90;;;9.90;99.90;;;9.44;100.00;96371.25;5028226;28;20030;-81
2023/11/05 07:58:10;;;;;;;5.43;1.13;;;9.90;99.90;;;9.48;100.00;96383.94;5020735;28;20400;-81
2023/11/05 08:00:36;;;;;;;5.35;0.88;;;10.00;99.90;;;9.56;100.00;96395.16;5023040;28;20051;-83
2023/11/05 08:03:02;;;;;;;6.78;1.20;;;10.00;99.90;;;9.60;100.00;96418.72;5024732;28;20087;-81
2023/11/05 08:05:28;;;;;;;5.82;1.02;;;10.00;99.90;;;9.66;100.00;96424.00;5011310;28;20045;-82
2023/11/05 08:07:55;;;;;;;6.22;0.88;;;10.10;99.90;;;9.76;100.00;96442.78;5018232;28;20062;-81
2023/11/05 08:10:21;;;;;;;2.72;0.90;;;10.20;99.90;;;9.82;100.00;96457.06;5013498;28;20030;-81
2023/11/05 08:12:47;;;;;;;5.55;0.80;;;10.20;99.90;;;9.82;100.00;96462.50;5026604;28;20468;-83
2023/11/05 08:15:13;;;;;;;3.17;0.63;;;10.30;99.90;;;9.90;100.00;96475.31;5018505;28;20037;-83
2023/11/05 08:17:39;;;;;;;2.25;0.75;;;10.30;99.90;;;9.96;100.00;96489.59;5023960;28;20041;-85
2023/11/05 08:20:06;;;;;;;5.25;0.80;;;10.40;99.90;;;9.91;100.00;96485.91;5024191;28;20042;-83
2023/11/05 08:22:32;;;;;;;4.35;0.75;;;10.50;99.90;;;10.03;100.00;96501.66;5023380;28;20029;-83
2023/11/05 08:24:58;;;;;;;5.00;0.80;;;10.50;99.90;;;10.13;100.00;96510.66;5030328;28;20389;-84
2023/11/05 08:27:24;;;;;;;3.55;0.90;;;10.60;99.90;;;10.16;100.00;96521.72;5023119;28;20559;-83
2023/11/05 08:29:50;;;;;;;4.32;0.80;;;10.60;99.90;;;10.19;100.00;96528.44;5021617;28;20069;-83
2023/11/05 08:32:17;;;;;;;4.15;0.82;;;10.70;99.90;;;10.25;100.00;96526.38;5034940;28;20037;-80
2023/11/05 08:34:43;;;;;;;1.73;0.70;;;10.70;99.90;;;10.30;100.00;96539.84;5027260;28;20033;-79
2023/11/05 08:37:09;;;;;;;4.72;0.95;;;10.70;99.90;;;10.30;100.00;96537.13;5026880;28;20068;-79
2023/11/05 08:39:35;;;;;;;3.10;0.80;;;10.80;99.90;;;10.39;100.00;96537.97;5024686;28;20389;-80
2023/11/05 08:42:01;;;;;;;2.72;0.75;;;10.80;99.90;;;10.36;100.00;96557.69;5025997;28;20481;-78
2023/11/05 08:44:27;;;;;;;3.15;0.77;;;10.80;99.90;;;10.33;100.00;96553.66;5025834;28;20508;-80
2023/11/05 08:46:53;;;;;;;1.55;0.60;;;10.90;99.90;;;10.49;100.00;96559.50;5025374;28;20055;-80
2023/11/05 08:49:20;;;;;;;2.13;0.60;;;10.90;99.90;;;10.59;100.00;96576.69;5010901;28;20053;-81
2023/11/05 08:51:46;;;;;;;3.90;0.60;;;11.00;99.90;;;10.57;100.00;96565.28;5023718;28;20115;-81
2023/11/05 08:54:12;;;;;;;2.05;0.70;;;11.10;99.90;;;10.49;100.00;96578.59;5043214;28;20493;-81
2023/11/05 08:56:40;;;;;;;2.70;0.60;;;11.00;99.90;;;10.38;100.00;96573.72;5025319;28;20033;-77
2023/11/05 08:59:06;;;;;;;3.97;0.73;;;11.00;99.90;;;10.50;100.00;96587.56;5021887;28;20053;-81
2023/11/05 09:01:32;;;;;;;4.28;0.65;;;11.00;99.90;;;10.46;100.00;96584.66;5015691;28;20037;-79
2023/11/05 09:03:59;;;;;;;2.53;0.68;;;11.10;99.90;;;10.70;100.00;96604.44;5024175;28;20133;-81
2023/11/05 09:06:25;;;;;;;1.92;0.68;;;11.10;99.90;;;10.74;100.00;96602.69;5025385;28;20030;-80
2023/11/05 09:08:51;;;;;;;2.58;0.70;;;11.20;99.90;;;10.94;100.00;96609.50;5024582;28;20029;-81
2023/11/05 09:11:17;;;;;;;2.53;0.73;;;11.30;99.90;;;11.09;100.00;96616.41;5022308;28;20033;-78
2023/11/05 09:13:44;;;;;;;4.97;0.90;;;11.40;99.90;;;11.20;100.00;96616.91;5029438;28;20033;-79
2023/11/05 09:16:12;;;;;;;2.88;0.63;;;11.60;99.90;;;11.40;100.00;96629.13;5037043;28;20034;-79
2023/11/05 09:18:42;;;;;;;2.30;0.50;;;11.80;99.90;;;11.48;100.00;96636.50;5027193;28;20033;-81
2023/11/05 09:21:08;;;;;;;2.80;0.68;;;11.90;99.90;;;11.59;100.00;96634.25;5028150;28;20128;-79
2023/11/05 09:23:34;;;;;;;2.08;0.50;;;12.00;99.90;;;11.65;100.00;96643.09;5022234;28;20061;-77
2023/11/05 09:26:00;;;;;;;2.78;0.82;;;12.10;99.90;;;11.66;100.00;96648.19;5026093;28;20425;-81
2023/11/05 09:28:25;;;;;;;3.60;0.70;;;12.20;99.90;;;11.75;100.00;96645.47;5026175;28;20075;-78
2023/11/05 09:30:54;;;;;;;2.83;0.55;;;12.20;99.90;;;11.86;100.00;96654.13;5013796;28;20048;-80
2023/11/05 09:33:21;;;;;;;1.83;0.60;;;12.30;99.90;;;11.76;100.00;96663.47;5014786;28;20038;-78
2023/11/05 09:35:47;;;;;;;2.57;0.60;;;12.30;99.90;;;11.65;100.00;96656.72;5012698;28;20052;-79
2023/11/05 09:38:13;;;;;;;2.30;0.70;;;12.30;99.90;;;11.72;100.00;96662.50;5016971;28;20029;-79
2023/11/05 09:40:38;;;;;;;4.10;0.47;;;12.20;99.90;;;11.68;100.00;96667.00;5014294;28;20049;-78
2023/11/05 09:43:09;;;;;;;2.03;0.50;;;12.20;99.90;;;11.64;100.00;96668.78;5014713;28;20389;-79
2023/11/05 09:45:37;;;;;;;5.15;0.63;;;12.10;99.90;;;11.57;100.00;96666.53;5013410;28;20041;-77
2023/11/05 09:48:11;;;;;;;1.58;0.55;;;12.00;99.90;;;11.42;100.00;96673.25;5016427;28;20037;-80
2023/11/05 09:50:41;;;;;;;1.20;0.30;;;12.00;99.90;;;11.40;100.00;96686.41;5018679;28;20046;-79
2023/11/05 09:53:14;;;;;;;4.05;0.57;;;11.90;99.90;;;11.45;100.00;96688.19;5012436;28;20034;-80
2023/11/05 09:55:41;;;;;;;2.83;0.47;;;11.90;99.90;;;11.52;100.00;96683.84;5012726;28;20139;-80
2023/11/05 09:58:13;;;;;;;2.33;0.63;;;12.00;99.90;;;11.71;100.00;96687.41;5015748;28;20069;-77
2023/11/05 10:00:39;;;;;;;2.40;0.90;;;12.10;99.90;;;11.83;100.00;96697.69;5017591;28;20158;-77
2023/11/05 10:03:12;;;;;;;5.75;0.65;;;12.20;99.90;;;12.27;100.00;96703.13;5012136;28;20056;-77
2023/11/05 10:05:42;;;;;;;1.90;0.50;;;12.50;99.90;;;12.77;100.00;96705.25;5016128;28;20044;-78
2023/11/05 10:08:10;;;;;;;2.00;0.55;;;12.90;99.90;;;13.01;100.00;96700.31;5012360;28;20093;-78
2023/11/05 10:10:39;;;;;;;1.70;0.40;;;13.20;99.90;;;12.87;100.00;96700.53;5017416;28;20037;-78
2023/11/05 10:13:06;;;;;;;1.85;0.50;;;13.30;99.90;;;12.92;100.00;96703.09;5034489;28;20125;-78
2023/11/05 10:15:40;;;;;;;1.42;0.40;;;13.30;99.90;;;12.79;100.00;96694.78;5013610;28;20116;-78
2023/11/05 10:18:18;;;;;;;3.45;0.55;;;13.30;99.90;;;13.36;100.00;96716.53;5013472;28;20085;-78
2023/11/05 10:20:55;;;;;;;1.40;0.43;;;13.30;99.90;;;14.09;100.00;96722.81;5012151;28;20073;-79